Time;durP1;ratioP1;P1;durP2;ratioP2;P2;SDS_P1;SDS_P2;PMS_P1;PMS_P2;Temp;Humidity;BMP_temperature;BMP_pressure;BME280_temperature;BME280_humidity;BME280_pressure;Samples;Min_cycle;Max_cycle;Signal;HPM_P1;HPM_P2
2022/12/22 03:26:37;;;;;;;2.17;0.50;;;27.60;56.00;;;;;;5060735;28;20553;-62
2022/12/22 03:29:05;;;;;;;3.80;0.90;;;27.50;53.80;;;;;;5056111;28;20091;-62
2022/12/22 03:31:32;;;;;;;3.47;0.73;;;27.30;53.20;;;;;;5046070;28;20123;-63
2022/12/22 03:34:00;;;;;;;4.20;0.90;;;27.30;53.50;;;;;;5045794;28;20013;-62
2022/12/22 03:36:27;;;;;;;3.17;0.95;;;27.60;54.90;;;;;;5036296;28;20068;-62
2022/12/22 03:38:54;;;;;;;5.97;0.77;;;28.00;54.40;;;;;;5035428;28;20036;-62
2022/12/22 03:47:09;;;;;;;1.63;1.08;;;28.20;52.60;;;;;;5038658;28;20103;-62
2022/12/22 03:49:36;;;;;;;3.03;0.60;;;27.60;53.70;;;;;;5037595;28;20017;-62
2022/12/22 03:52:03;;;;;;;4.18;0.80;;;27.60;54.20;;;;;;5046122;28;20432;-62
2022/12/22 03:54:31;;;;;;;7.30;0.73;;;27.30;54.20;;;;;;5051251;28;20068;-61
2022/12/22 03:56:59;;;;;;;6.00;0.57;;;27.00;54.60;;;;;;5048745;28;20435;-61
2022/12/22 03:59:26;;;;;;;3.65;0.75;;;26.90;55.50;;;;;;5050820;28;20564;-62
2022/12/22 04:01:54;;;;;;;2.50;0.77;;;26.70;55.30;;;;;;5055198;28;20075;-62
2022/12/22 04:04:24;;;;;;;2.80;1.00;;;26.70;55.30;;;;;;5062507;28;20427;-62
2022/12/22 04:06:52;;;;;;;3.90;1.92;;;26.40;55.60;;;;;;5061918;28;20119;-63
2022/12/22 04:09:21;;;;;;;4.40;1.20;;;26.50;56.60;;;;;;5056100;28;20031;-62
2022/12/22 04:14:34;;;;;;;3.33;1.10;;;26.00;57.60;;;;;;5049031;28;20131;-63
2022/12/22 04:17:05;;;;;;;1.90;0.70;;;26.00;58.80;;;;;;5051117;28;20025;-62
2022/12/22 04:19:33;;;;;;;3.90;1.10;;;26.10;57.90;;;;;;5060428;28;20113;-63
2022/12/22 04:22:00;;;;;;;3.00;0.70;;;25.90;58.00;;;;;;5057586;28;20048;-63
2022/12/22 04:24:27;;;;;;;3.45;0.73;;;25.70;57.80;;;;;;5054971;28;20022;-63
2022/12/22 04:26:55;;;;;;;2.45;0.75;;;25.40;58.90;;;;;;5056156;28;20054;-63
2022/12/22 04:29:22;;;;;;;1.92;0.70;;;25.40;59.70;;;;;;5045509;28;20052;-63
2022/12/22 04:31:49;;;;;;;3.10;0.68;;;25.40;59.70;;;;;;5039632;28;20018;-63
2022/12/22 04:34:16;;;;;;;5.60;1.05;;;25.20;62.70;;;;;;5044854;28;20116;-62
2022/12/22 04:36:43;;;;;;;3.25;1.10;;;24.90;63.50;;;;;;5041672;28;20025;-62
2022/12/22 04:39:11;;;;;;;8.25;1.63;;;24.60;65.70;;;;;;5054131;28;20056;-62
2022/12/22 04:41:38;;;;;;;4.82;1.10;;;24.00;66.70;;;;;;5035923;28;20030;-61
2022/12/22 04:44:05;;;;;;;6.45;1.10;;;23.80;68.60;;;;;;5051755;28;20374;-62
2022/12/22 04:46:32;;;;;;;6.35;1.25;;;23.60;68.70;;;;;;5048813;28;20059;-62
2022/12/22 04:49:02;;;;;;;3.50;1.35;;;23.60;69.50;;;;;;5041754;28;20053;-64
2022/12/22 04:51:29;;;;;;;4.07;0.98;;;23.50;69.30;;;;;;5043560;28;20037;-62
2022/12/22 04:53:57;;;;;;;4.97;0.80;;;23.60;68.90;;;;;;5042853;28;20033;-63
2022/12/22 04:56:24;;;;;;;8.63;1.20;;;23.60;68.20;;;;;;5057229;28;20108;-63
2022/12/22 04:58:51;;;;;;;3.10;0.77;;;23.50;69.10;;;;;;5055691;28;20055;-63
2022/12/22 05:01:18;;;;;;;7.45;1.02;;;23.50;70.40;;;;;;5044175;28;20035;-62
2022/12/22 05:03:46;;;;;;;5.03;0.77;;;23.30;75.10;;;;;;5041486;28;20025;-63
2022/12/22 05:06:14;;;;;;;2.13;0.80;;;22.90;77.10;;;;;;5048961;28;20016;-62
2022/12/22 05:08:42;;;;;;;4.65;0.98;;;22.50;83.40;;;;;;5053255;28;20115;-62
2022/12/22 05:11:09;;;;;;;8.70;1.38;;;22.20;83.50;;;;;;5053575;28;20028;-62
2022/12/22 05:13:36;;;;;;;2.60;0.93;;;21.90;87.10;;;;;;5044913;28;20501;-62
2022/12/22 05:16:12;;;;;;;2.35;0.90;;;21.70;91.20;;;;;;5053263;28;20036;-62
2022/12/22 05:18:41;;;;;;;5.30;0.93;;;21.60;90.90;;;;;;5060522;28;20067;-62
2022/12/22 05:21:14;;;;;;;4.25;0.95;;;21.40;90.30;;;;;;5052342;28;20029;-62
2022/12/22 05:23:41;;;;;;;3.83;1.05;;;21.30;91.20;;;;;;5046546;28;20021;-61
2022/12/22 05:26:09;;;;;;;6.63;1.17;;;21.30;91.10;;;;;;5040666;28;20453;-62
2022/12/22 05:28:36;;;;;;;4.65;0.85;;;21.30;90.50;;;;;;5057544;28;20032;-61
2022/12/22 05:31:06;;;;;;;7.38;2.10;;;21.20;91.40;;;;;;5049493;28;20042;-62
2022/12/22 05:33:34;;;;;;;4.25;1.55;;;21.00;91.90;;;;;;5041905;28;20032;-62
2022/12/22 05:36:01;;;;;;;4.68;1.02;;;20.90;92.20;;;;;;5043032;28;20037;-62
2022/12/22 05:38:28;;;;;;;5.80;1.48;;;20.90;93.40;;;;;;5046459;28;20108;-63
2022/12/22 05:40:56;;;;;;;7.03;2.45;;;20.80;94.20;;;;;;5051678;28;20013;-62
2022/12/22 05:43:23;;;;;;;3.33;0.90;;;20.80;93.60;;;;;;5057993;28;20466;-63
2022/12/22 05:45:51;;;;;;;1.45;0.73;;;20.80;94.50;;;;;;5050240;28;20047;-63
2022/12/22 05:48:19;;;;;;;6.40;0.90;;;20.80;93.10;;;;;;5038288;28;20021;-62
2022/12/22 05:50:47;;;;;;;4.45;1.08;;;20.90;92.50;;;;;;5044422;28;20060;-63
2022/12/22 05:53:14;;;;;;;4.22;0.90;;;20.90;92.60;;;;;;5056081;28;20021;-63
2022/12/22 05:55:41;;;;;;;2.53;1.02;;;20.90;93.10;;;;;;5047831;28;20037;-63
2022/12/22 05:58:08;;;;;;;3.58;1.20;;;21.00;92.40;;;;;;5039576;28;20437;-62
2022/12/22 06:00:35;;;;;;;4.80;0.95;;;20.90;93.10;;;;;;5039539;28;20053;-61
2022/12/22 06:03:03;;;;;;;6.75;1.10;;;21.00;92.90;;;;;;5059432;28;20068;-61
2022/12/22 06:05:33;;;;;;;5.38;1.02;;;21.00;91.60;;;;;;5062107;28;20024;-62
2022/12/22 06:08:00;;;;;;;3.67;1.75;;;21.00;92.50;;;;;;5046698;28;20040;-62
2022/12/22 06:10:27;;;;;;;9.50;1.52;;;21.10;92.90;;;;;;5063221;28;20017;-63
2022/12/22 06:12:54;;;;;;;4.60;1.33;;;21.20;93.60;;;;;;5058516;28;20055;-63
2022/12/22 06:15:22;;;;;;;6.85;0.80;;;21.20;94.10;;;;;;5041989;28;20068;-62
2022/12/22 06:17:49;;;;;;;2.03;0.80;;;21.10;92.90;;;;;;5041351;28;20437;-63
2022/12/22 06:20:16;;;;;;;4.93;1.23;;;21.00;93.20;;;;;;5039738;28;20615;-61
2022/12/22 06:22:43;;;;;;;7.03;1.00;;;20.90;93.40;;;;;;5040250;28;20037;-62
2022/12/22 06:25:11;;;;;;;5.78;0.70;;;20.90;93.50;;;;;;5041328;28;20025;-62
2022/12/22 06:27:38;;;;;;;1.98;0.80;;;20.90;93.80;;;;;;5061034;28;20020;-62
2022/12/22 06:30:06;;;;;;;4.80;1.20;;;20.90;95.10;;;;;;5044225;28;20055;-62
2022/12/22 06:32:36;;;;;;;7.10;1.45;;;20.90;95.90;;;;;;5040734;28;20492;-62
2022/12/22 06:35:05;;;;;;;5.68;1.10;;;20.80;95.90;;;;;;5042732;28;20040;-62
2022/12/22 06:37:32;;;;;;;3.88;1.08;;;20.60;96.40;;;;;;5041671;28;20108;-62
2022/12/22 06:39:59;;;;;;;4.25;1.23;;;20.50;97.00;;;;;;5045115;28;20040;-62
2022/12/22 06:45:12;;;;;;;3.85;1.02;;;20.30;98.80;;;;;;5041280;28;20047;-62
2022/12/22 06:47:39;;;;;;;2.50;0.82;;;20.10;99.40;;;;;;5041925;28;20033;-61
2022/12/22 06:50:07;;;;;;;3.08;0.80;;;20.00;99.90;;;;;;5064193;28;20191;-62
2022/12/22 06:52:34;;;;;;;4.03;0.90;;;19.90;99.90;;;;;;5055747;28;20141;-62
2022/12/22 06:55:01;;;;;;;3.97;1.52;;;19.80;99.90;;;;;;5063960;28;20039;-62
2022/12/22 06:57:29;;;;;;;5.32;1.90;;;19.60;99.90;;;;;;5060107;28;20074;-62
2022/12/22 06:59:56;;;;;;;7.32;2.15;;;19.50;99.90;;;;;;5047572;28;20033;-62
2022/12/22 07:02:23;;;;;;;4.65;2.53;;;19.40;99.90;;;;;;5046826;28;20492;-62
2022/12/22 07:04:51;;;;;;;3.85;1.40;;;19.30;99.90;;;;;;5046499;28;20029;-63
2022/12/22 07:07:18;;;;;;;7.72;1.35;;;19.20;99.90;;;;;;5051018;28;20025;-61
2022/12/22 07:09:45;;;;;;;5.28;1.20;;;19.10;99.90;;;;;;5063052;28;20031;-62
2022/12/22 07:12:13;;;;;;;7.68;1.38;;;18.90;99.90;;;;;;5039339;28;20021;-62
2022/12/22 07:14:40;;;;;;;6.13;1.23;;;18.90;99.90;;;;;;5036682;28;20029;-62
2022/12/22 07:17:08;;;;;;;4.57;1.65;;;18.80;99.90;;;;;;5039906;28;20401;-63
2022/12/22 07:19:35;;;;;;;4.07;1.42;;;18.80;99.90;;;;;;5042786;28;20017;-64
2022/12/22 07:22:02;;;;;;;8.05;1.58;;;18.70;99.90;;;;;;5045251;28;20032;-62
2022/12/22 07:24:30;;;;;;;6.30;1.88;;;18.60;99.90;;;;;;5054669;28;20092;-63
2022/12/22 07:26:57;;;;;;;8.00;2.75;;;18.60;99.90;;;;;;5046609;28;20068;-64
2022/12/22 07:29:24;;;;;;;8.60;2.38;;;18.60;99.90;;;;;;5046118;28;20104;-64
2022/12/22 07:31:52;;;;;;;6.72;1.50;;;18.50;99.90;;;;;;5046721;28;20512;-65
2022/12/22 07:34:19;;;;;;;5.30;1.48;;;18.50;99.90;;;;;;5048162;28;20474;-65
2022/12/22 07:36:46;;;;;;;9.45;1.98;;;18.30;99.90;;;;;;5046864;28;20025;-65
2022/12/22 07:39:14;;;;;;;6.78;2.20;;;18.30;99.90;;;;;;5041238;28;20028;-65
2022/12/22 07:44:26;;;;;;;8.57;1.75;;;18.30;99.90;;;;;;5048294;28;20074;-65
2022/12/22 07:46:53;;;;;;;5.20;1.45;;;18.20;99.90;;;;;;5047949;28;20045;-65
2022/12/22 07:52:06;;;;;;;6.13;1.90;;;18.20;99.90;;;;;;5041049;28;20141;-67
2022/12/22 07:54:34;;;;;;;6.90;2.08;;;18.20;99.90;;;;;;5037043;28;20508;-65
2022/12/22 07:57:02;;;;;;;7.05;2.38;;;18.30;99.90;;;;;;5043062;28;20430;-65
2022/12/22 07:59:29;;;;;;;7.43;2.17;;;18.20;99.90;;;;;;5037745;28;20060;-67
2022/12/22 08:01:57;;;;;;;7.03;2.55;;;18.10;99.90;;;;;;5049844;28;20037;-66
2022/12/22 08:04:24;;;;;;;3.65;2.25;;;18.10;99.90;;;;;;5043354;28;20034;-66
2022/12/22 08:06:51;;;;;;;7.30;2.30;;;18.00;99.90;;;;;;5034204;28;20030;-68
2022/12/22 08:09:20;;;;;;;8.18;2.33;;;18.00;99.90;;;;;;5054303;28;20508;-67
2022/12/22 08:11:48;;;;;;;7.53;2.28;;;18.00;99.90;;;;;;5044693;28;20108;-66
2022/12/22 08:14:16;;;;;;;6.65;2.05;;;18.00;99.90;;;;;;5051946;28;20028;-69
2022/12/22 08:16:43;;;;;;;4.28;1.70;;;18.10;99.90;;;;;;5059822;28;20117;-69
2022/12/22 08:19:10;;;;;;;5.43;1.90;;;18.10;99.90;;;;;;5034089;28;20035;-69
2022/12/22 08:21:38;;;;;;;7.88;2.03;;;18.00;99.90;;;;;;5033837;28;20551;-69
2022/12/22 08:24:05;;;;;;;5.50;2.20;;;18.00;99.90;;;;;;5040413;28;20028;-68
2022/12/22 08:26:39;;;;;;;9.13;1.77;;;18.00;99.90;;;;;;5048583;28;20294;-69
2022/12/22 08:29:14;;;;;;;6.55;1.88;;;18.00;99.90;;;;;;5053037;28;20033;-69
2022/12/22 08:31:41;;;;;;;7.15;2.05;;;17.90;99.90;;;;;;5050834;28;20032;-69
2022/12/22 08:34:12;;;;;;;7.55;2.08;;;17.90;99.90;;;;;;5040575;28;20019;-69
2022/12/22 08:36:43;;;;;;;8.35;2.45;;;17.90;99.90;;;;;;5055455;28;20028;-69
2022/12/22 08:39:11;;;;;;;6.45;2.08;;;17.90;99.90;;;;;;5044623;28;20025;-69
2022/12/22 08:41:51;;;;;;;5.80;1.90;;;17.90;99.90;;;;;;5059077;28;20025;-69
2022/12/22 08:44:24;;;;;;;4.45;1.88;;;17.90;99.90;;;;;;5038397;28;20032;-69
2022/12/22 08:46:52;;;;;;;6.22;2.28;;;17.80;99.90;;;;;;5049965;28;20064;-68
2022/12/22 08:49:20;;;;;;;4.72;1.65;;;17.80;99.90;;;;;;5054846;28;20520;-69
2022/12/22 08:51:48;;;;;;;5.68;1.65;;;17.80;99.90;;;;;;5064668;28;20017;-69
2022/12/22 08:54:15;;;;;;;6.95;2.00;;;17.70;99.90;;;;;;5053454;28;20095;-70
2022/12/22 08:56:43;;;;;;;5.65;1.90;;;17.70;99.90;;;;;;5054160;28;20098;-70
2022/12/22 08:59:11;;;;;;;3.28;1.40;;;17.70;99.90;;;;;;5060493;28;20112;-69
2022/12/22 09:01:46;;;;;;;6.70;1.88;;;17.60;99.90;;;;;;5052014;28;20031;-70
2022/12/22 09:04:17;;;;;;;5.43;1.48;;;17.50;99.90;;;;;;5047460;28;20024;-69
2022/12/22 09:06:45;;;;;;;4.40;1.92;;;17.50;99.90;;;;;;5054865;28;20035;-69
2022/12/22 09:09:14;;;;;;;6.47;1.98;;;17.50;99.90;;;;;;5053559;28;20052;-70
2022/12/22 09:11:41;;;;;;;7.22;2.42;;;17.50;99.90;;;;;;5060669;28;20021;-70
2022/12/22 09:14:11;;;;;;;4.32;1.80;;;17.40;99.90;;;;;;5049064;28;20103;-70
2022/12/22 09:16:38;;;;;;;5.45;2.00;;;17.40;99.90;;;;;;5050123;28;20037;-70
2022/12/22 09:19:07;;;;;;;6.82;2.22;;;17.30;99.90;;;;;;5042008;28;20029;-69
2022/12/22 09:21:35;;;;;;;7.38;3.28;;;17.30;99.90;;;;;;5062688;28;20074;-69
2022/12/22 09:24:03;;;;;;;10.02;2.25;;;17.20;99.90;;;;;;5050462;28;20312;-70
2022/12/22 09:26:31;;;;;;;7.50;1.75;;;17.20;99.90;;;;;;5053701;28;20436;-69
2022/12/22 09:28:58;;;;;;;5.25;1.80;;;17.10;99.90;;;;;;5054672;28;20021;-70
2022/12/22 09:31:26;;;;;;;8.50;1.92;;;17.10;99.90;;;;;;5043035;28;20086;-67
2022/12/22 09:33:54;;;;;;;7.53;2.10;;;17.10;99.90;;;;;;5035296;28;20029;-70
2022/12/22 09:36:27;;;;;;;4.70;2.13;;;17.00;99.90;;;;;;5062136;28;20095;-69
2022/12/22 09:38:55;;;;;;;5.50;1.47;;;17.00;99.90;;;;;;5047162;28;20044;-70
2022/12/22 09:41:25;;;;;;;7.35;1.90;;;17.00;99.90;;;;;;5048825;28;20699;-70
2022/12/22 09:43:54;;;;;;;4.70;1.65;;;17.00;99.90;;;;;;5044933;28;20226;-68
2022/12/22 09:46:25;;;;;;;7.97;1.75;;;16.90;99.90;;;;;;5048850;28;20405;-70
2022/12/22 09:48:54;;;;;;;5.82;2.00;;;16.90;99.90;;;;;;5055168;28;20055;-68
2022/12/22 09:51:23;;;;;;;6.32;2.17;;;16.90;99.90;;;;;;5052181;28;20028;-69
2022/12/22 09:53:56;;;;;;;11.68;1.92;;;16.90;99.90;;;;;;5042700;28;20032;-70
2022/12/22 09:56:25;;;;;;;7.70;3.00;;;16.80;99.90;;;;;;5048926;28;20040;-70
2022/12/22 09:58:53;;;;;;;5.45;2.10;;;16.80;99.90;;;;;;5056546;28;20036;-69
2022/12/22 10:01:41;;;;;;;5.57;2.80;;;16.80;99.90;;;;;;5052979;28;20489;-69
2022/12/22 10:04:45;;;;;;;8.80;2.15;;;16.80;99.90;;;;;;5034360;28;20048;-70
2022/12/22 10:07:31;;;;;;;5.72;2.83;;;16.70;99.90;;;;;;5052189;28;20029;-70
2022/12/22 10:10:14;;;;;;;6.22;2.60;;;16.60;99.90;;;;;;5049478;28;20040;-70
2022/12/22 10:12:41;;;;;;;2.83;2.15;;;16.60;99.90;;;;;;5058210;28;20021;-70
2022/12/22 10:15:11;;;;;;;6.95;2.42;;;16.60;99.90;;;;;;5044348;28;20033;-69
2022/12/22 10:17:38;;;;;;;6.30;2.25;;;16.50;99.90;;;;;;5058946;28;20033;-68
2022/12/22 10:20:21;;;;;;;9.70;2.45;;;16.50;99.90;;;;;;5048331;28;20051;-68
2022/12/22 10:22:50;;;;;;;7.97;2.72;;;16.50;99.90;;;;;;5056143;28;20028;-68
2022/12/22 10:25:30;;;;;;;9.15;2.15;;;16.40;99.90;;;;;;5038655;28;20498;-70
2022/12/22 10:28:00;;;;;;;8.57;3.22;;;16.40;99.90;;;;;;5061928;28;20075;-70
2022/12/22 10:30:31;;;;;;;8.15;2.58;;;16.40;99.90;;;;;;5042819;28;20030;-70
2022/12/22 10:33:14;;;;;;;11.68;2.55;;;16.40;99.90;;;;;;5035340;28;20037;-70
2022/12/22 10:35:54;;;;;;;8.88;3.08;;;16.40;99.90;;;;;;5050438;28;20048;-70
2022/12/22 10:38:24;;;;;;;10.52;2.95;;;16.30;99.90;;;;;;5036259;28;20020;-71
2022/12/22 10:40:55;;;;;;;9.82;4.38;;;16.30;99.90;;;;;;5056889;28;20540;-69
2022/12/22 10:43:30;;;;;;;7.95;3.55;;;16.30;99.90;;;;;;5060412;28;20085;-71
2022/12/22 10:45:57;;;;;;;;;;;16.30;99.90;;;;;;5038862;28;20128;-71
2022/12/22 10:48:34;;;;;;;7.75;4.35;;;16.30;99.90;;;;;;5042488;28;19919;-70
2022/12/22 10:51:05;;;;;;;10.25;5.22;;;16.30;99.90;;;;;;5038697;28;20030;-70
2022/12/22 10:53:53;;;;;;;9.95;4.28;;;16.30;99.90;;;;;;5034654;28;20025;-69
2022/12/22 10:56:32;;;;;;;8.05;4.03;;;16.30;99.90;;;;;;5042203;28;20040;-71
2022/12/22 10:59:03;;;;;;;8.80;3.67;;;16.30;99.90;;;;;;5030875;28;20037;-70
2022/12/22 11:01:33;;;;;;;8.55;4.32;;;16.20;99.90;;;;;;5057276;28;20382;-70
2022/12/22 11:04:32;;;;;;;8.10;3.20;;;16.20;99.90;;;;;;5055858;28;20021;-70
2022/12/22 11:07:00;;;;;;;7.53;3.30;;;16.20;99.90;;;;;;5062493;28;20405;-70
2022/12/22 11:09:27;;;;;;;8.88;3.22;;;16.20;99.90;;;;;;5068155;28;20033;-70
2022/12/22 11:12:01;;;;;;;6.32;3.60;;;16.10;99.90;;;;;;5068770;28;20020;-69
2022/12/22 11:14:53;;;;;;;7.50;3.13;;;16.10;99.90;;;;;;5059119;28;20473;-70
2022/12/22 11:17:28;;;;;;;6.90;3.72;;;16.10;99.90;;;;;;5058977;28;20040;-70
2022/12/22 11:19:59;;;;;;;5.82;3.03;;;16.10;99.90;;;;;;5069240;28;20034;-69
2022/12/22 11:22:35;;;;;;;5.13;3.08;;;16.10;99.90;;;;;;5040789;28;20482;-71
2022/12/22 11:25:33;;;;;;;8.95;3.40;;;16.10;99.90;;;;;;5044339;28;20393;-68
2022/12/22 11:28:26;;;;;;;8.43;3.65;;;16.10;99.90;;;;;;5043651;28;20025;-71
2022/12/22 11:30:59;;;;;;;4.60;2.83;;;16.10;99.90;;;;;;5049086;28;20017;-70
2022/12/22 11:33:51;;;;;;;6.43;3.40;;;16.00;99.90;;;;;;5063418;28;20443;-71
2022/12/22 11:36:48;;;;;;;9.90;3.88;;;16.00;99.90;;;;;;5058442;28;20123;-70
2022/12/22 11:39:24;;;;;;;4.85;2.97;;;16.00;99.90;;;;;;5041911;28;20021;-72
2022/12/22 11:42:30;;;;;;;5.75;3.22;;;15.90;99.90;;;;;;5037766;28;20485;-71
2022/12/22 11:45:29;;;;;;;5.45;2.97;;;15.80;99.90;;;;;;5031980;28;20131;-71
2022/12/22 11:48:13;;;;;;;8.63;3.75;;;15.70;99.90;;;;;;5045720;28;20053;-71
2022/12/22 11:50:45;;;;;;;9.75;4.22;;;15.70;99.90;;;;;;5036342;28;20095;-71
2022/12/22 11:53:33;;;;;;;7.70;3.97;;;15.70;99.90;;;;;;5046826;28;20056;-72
2022/12/22 11:56:36;;;;;;;7.82;3.30;;;15.60;99.90;;;;;;5034494;28;20029;-70
2022/12/22 11:59:15;;;;;;;7.57;3.00;;;15.60;99.90;;;;;;5055514;28;20029;-66
2022/12/22 12:02:01;;;;;;;10.85;4.00;;;15.50;99.90;;;;;;5036417;28;20052;-71
2022/12/22 12:04:46;;;;;;;9.73;3.70;;;15.50;99.90;;;;;;5045133;28;20105;-73
2022/12/22 12:07:29;;;;;;;10.48;3.70;;;15.50;99.90;;;;;;5045441;28;20021;-71
2022/12/22 12:10:17;;;;;;;8.88;3.92;;;15.50;99.90;;;;;;5047163;28;20033;-70
2022/12/22 12:12:48;;;;;;;8.73;3.15;;;15.40;99.90;;;;;;5047778;28;20393;-70
2022/12/22 12:15:25;;;;;;;9.02;3.95;;;15.30;99.90;;;;;;5060572;28;20072;-70
2022/12/22 12:17:59;;;;;;;12.75;4.53;;;15.30;99.90;;;;;;5053748;28;20114;-71
2022/12/22 12:20:37;;;;;;;11.55;5.50;;;15.30;99.90;;;;;;5047718;28;20065;-70
2022/12/22 12:23:38;;;;;;;13.02;5.45;;;15.40;99.90;;;;;;5032573;28;20118;-70
2022/12/22 12:26:31;;;;;;;7.68;4.57;;;15.50;99.90;;;;;;5032697;28;20029;-71
2022/12/22 12:29:26;;;;;;;7.32;3.90;;;15.40;99.90;;;;;;5046322;28;20033;-71
2022/12/22 12:32:13;;;;;;;7.05;4.65;;;15.30;99.90;;;;;;5045856;28;20108;-70
2022/12/22 12:34:46;;;;;;;8.93;5.00;;;15.30;99.90;;;;;;5041300;28;20038;-70
2022/12/22 12:37:18;;;;;;;12.32;6.47;;;15.30;99.90;;;;;;5032392;28;20418;-71
2022/12/22 12:39:58;;;;;;;16.67;6.22;;;15.30;99.90;;;;;;5045964;28;20478;-71
2022/12/22 12:42:29;;;;;;;5.88;4.85;;;15.30;99.90;;;;;;5042706;28;20030;-69
2022/12/22 12:44:58;;;;;;;13.50;6.07;;;15.30;99.90;;;;;;5042040;28;20072;-72
2022/12/22 12:47:33;;;;;;;10.45;6.05;;;15.30;99.90;;;;;;5047870;28;20048;-69
2022/12/22 12:50:09;;;;;;;14.00;6.28;;;15.30;99.90;;;;;;5031420;28;20029;-69
2022/12/22 12:52:39;;;;;;;11.77;5.40;;;15.30;99.90;;;;;;5032170;28;20026;-71
2022/12/22 12:55:24;;;;;;;11.27;6.82;;;15.30;99.90;;;;;;5041220;28;21250;-70
2022/12/22 12:57:52;;;;;;;15.70;7.93;;;15.40;99.90;;;;;;5041495;28;20040;-68
2022/12/22 13:00:38;;;;;;;13.73;7.72;;;15.50;99.90;;;;;;5039526;28;20060;-70
2022/12/22 13:03:11;;;;;;;12.75;7.20;;;15.60;99.90;;;;;;5046062;28;20568;-70
2022/12/22 13:05:57;;;;;;;14.07;7.63;;;15.70;99.90;;;;;;5040554;28;20029;-70
2022/12/22 13:08:32;;;;;;;11.45;6.38;;;15.80;99.90;;;;;;5040409;28;20524;-69
2022/12/22 13:10:59;;;;;;;11.25;6.07;;;15.80;99.90;;;;;;5035595;28;20026;-70
2022/12/22 13:13:27;;;;;;;7.03;5.13;;;15.80;99.90;;;;;;5043145;28;20029;-68
2022/12/22 13:16:05;;;;;;;16.40;4.97;;;15.80;99.90;;;;;;5041357;28;20037;-69
2022/12/22 13:18:43;;;;;;;12.82;5.78;;;15.70;99.90;;;;;;5039975;28;20029;-69
2022/12/22 13:21:27;;;;;;;12.43;5.70;;;15.70;99.90;;;;;;5048672;28;20017;-69
2022/12/22 13:24:32;;;;;;;7.93;4.38;;;15.70;99.90;;;;;;5031662;28;20026;-69
2022/12/22 13:27:06;;;;;;;11.73;5.30;;;15.60;99.90;;;;;;5048000;28;20037;-70
2022/12/22 13:29:40;;;;;;;10.70;5.30;;;15.70;99.90;;;;;;5032472;28;20388;-69
2022/12/22 13:32:22;;;;;;;15.23;5.70;;;15.80;99.90;;;;;;5035023;28;20033;-69
2022/12/22 13:35:18;;;;;;;10.27;5.38;;;15.90;99.90;;;;;;5035501;28;20180;-69
2022/12/22 13:37:48;;;;;;;12.88;5.88;;;15.90;99.90;;;;;;5042585;28;20052;-69
2022/12/22 13:40:20;;;;;;;13.52;5.55;;;15.90;99.90;;;;;;5031785;28;20091;-69
2022/12/22 13:43:07;;;;;;;11.05;4.78;;;15.90;99.90;;;;;;5043600;28;20129;-69
2022/12/22 13:45:48;;;;;;;8.90;3.95;;;15.90;99.90;;;;;;5067873;28;20094;-69
2022/12/22 13:48:20;;;;;;;9.05;4.00;;;15.90;99.90;;;;;;5048667;28;20033;-70
2022/12/22 13:50:54;;;;;;;7.03;3.10;;;15.80;99.90;;;;;;5038146;28;20033;-68
2022/12/22 13:53:30;;;;;;;6.65;3.45;;;15.80;99.90;;;;;;5030791;28;20025;-69
2022/12/22 13:55:58;;;;;;;6.45;3.38;;;15.70;99.90;;;;;;5037918;28;20036;-69
2022/12/22 13:58:29;;;;;;;8.48;3.70;;;15.60;99.90;;;;;;5039595;28;20037;-70
2022/12/22 14:01:09;;;;;;;7.20;3.47;;;15.50;99.90;;;;;;5038437;28;20119;-70
2022/12/22 14:03:50;;;;;;;8.57;3.75;;;15.50;99.90;;;;;;5036962;28;20037;-70
2022/12/22 14:06:29;;;;;;;12.00;5.78;;;15.50;99.90;;;;;;5037682;28;20490;-69
2022/12/22 14:09:13;;;;;;;11.15;4.80;;;15.60;99.90;;;;;;5033002;28;20029;-70
2022/12/22 14:12:01;;;;;;;9.88;4.70;;;15.60;99.90;;;;;;5034404;28;20108;-70
2022/12/22 14:14:36;;;;;;;13.45;5.32;;;15.60;99.90;;;;;;5035223;28;20194;-71
2022/12/22 14:17:13;;;;;;;9.23;4.93;;;15.60;99.90;;;;;;5041629;28;20033;-68
2022/12/22 14:19:40;;;;;;;10.75;5.32;;;15.70;99.90;;;;;;5038312;28;20076;-70
2022/12/22 14:22:13;;;;;;;10.30;5.00;;;15.80;99.90;;;;;;5039276;28;20102;-70
2022/12/22 14:24:55;;;;;;;9.32;5.32;;;15.80;99.90;;;;;;5033653;28;20382;-69
2022/12/22 14:27:51;;;;;;;6.03;4.05;;;15.90;99.90;;;;;;5032127;28;20051;-69
2022/12/22 14:30:33;;;;;;;9.50;3.90;;;15.90;99.90;;;;;;5046170;28;20098;-69
2022/12/22 14:33:26;;;;;;;13.00;4.90;;;15.90;99.90;;;;;;5042854;28;20107;-69
2022/12/22 14:36:22;;;;;;;8.32;4.93;;;15.90;99.90;;;;;;5040396;28;20060;-70
2022/12/22 14:38:57;;;;;;;8.32;4.45;;;15.90;99.90;;;;;;5030667;28;20166;-68
2022/12/22 14:41:41;;;;;;;9.68;4.07;;;15.90;99.90;;;;;;5032212;28;20022;-69
2022/12/22 14:44:16;;;;;;;9.70;4.43;;;15.90;99.90;;;;;;5042855;28;20033;-68
2022/12/22 14:47:04;;;;;;;8.43;4.53;;;16.00;99.90;;;;;;5035383;28;20190;-69
2022/12/22 14:49:32;;;;;;;8.13;4.82;;;16.00;99.90;;;;;;5041269;28;20383;-70
2022/12/22 14:52:07;;;;;;;8.80;5.25;;;16.00;99.90;;;;;;5032075;28;20025;-69
2022/12/22 14:54:34;;;;;;;8.63;5.10;;;16.00;99.90;;;;;;5033629;28;20025;-69
2022/12/22 14:57:12;;;;;;;8.30;4.70;;;16.00;99.90;;;;;;5032201;28;20029;-69
2022/12/22 14:59:40;;;;;;;5.45;3.75;;;16.00;99.90;;;;;;5037372;28;20113;-70
2022/12/22 15:02:24;;;;;;;9.77;4.00;;;16.00;99.90;;;;;;5044673;28;20071;-70
2022/12/22 15:05:14;;;;;;;8.07;3.50;;;16.00;99.90;;;;;;5045480;28;20116;-70
2022/12/22 15:07:49;;;;;;;10.25;5.03;;;15.90;99.90;;;;;;5041467;28;20432;-70
2022/12/22 15:10:17;;;;;;;10.30;4.53;;;15.80;99.90;;;;;;5033503;28;20024;-68
2022/12/22 15:12:46;;;;;;;12.70;4.65;;;15.70;99.90;;;;;;5041464;28;20022;-69
2022/12/22 15:15:21;;;;;;;12.98;6.15;;;15.60;99.90;;;;;;5038300;28;20048;-69
2022/12/22 15:17:53;;;;;;;8.80;4.93;;;15.60;99.90;;;;;;5032691;28;20071;-70
2022/12/22 15:20:25;;;;;;;10.32;6.13;;;15.50;99.90;;;;;;5039600;28;20057;-70
2022/12/22 15:22:54;;;;;;;11.43;6.97;;;15.40;99.90;;;;;;5038974;28;20103;-68
2022/12/22 15:25:23;;;;;;;24.08;9.27;;;15.40;99.90;;;;;;5036275;28;20033;-68
2022/12/22 15:27:51;;;;;;;24.52;8.90;;;15.50;99.90;;;;;;5039288;28;20053;-69
2022/12/22 15:30:21;;;;;;;19.73;9.35;;;15.60;99.90;;;;;;5034856;28;20033;-69
2022/12/22 15:32:48;;;;;;;15.68;7.13;;;15.60;99.90;;;;;;5030938;28;20470;-69
2022/12/22 15:35:32;;;;;;;15.00;6.38;;;15.50;99.90;;;;;;5041390;28;20561;-70
2022/12/22 15:38:00;;;;;;;13.48;6.80;;;15.40;99.90;;;;;;5043520;28;20561;-70
2022/12/22 15:40:28;;;;;;;12.77;6.25;;;15.30;99.90;;;;;;5041640;28;20025;-69
2022/12/22 15:42:56;;;;;;;10.13;6.32;;;15.30;99.90;;;;;;5034135;28;20026;-70
2022/12/22 15:45:23;;;;;;;12.32;6.80;;;15.30;99.90;;;;;;5046284;28;20152;-71
2022/12/22 15:47:52;;;;;;;11.23;7.15;;;15.30;99.90;;;;;;5043115;28;20422;-69
2022/12/22 15:50:32;;;;;;;19.38;8.00;;;15.30;99.90;;;;;;5029857;28;20150;-70
2022/12/22 15:53:00;;;;;;;17.65;8.98;;;15.40;99.90;;;;;;5039817;28;20032;-70
2022/12/22 15:55:27;;;;;;;22.75;9.90;;;15.50;99.90;;;;;;5034430;28;20044;-70
2022/12/22 15:57:58;;;;;;;21.08;11.32;;;15.60;99.90;;;;;;5045772;28;20029;-70
2022/12/22 16:00:25;;;;;;;21.30;11.98;;;15.70;99.90;;;;;;5039122;28;20025;-70
2022/12/22 16:02:52;;;;;;;19.67;11.43;;;15.80;99.90;;;;;;5035104;28;20029;-70
2022/12/22 16:05:20;;;;;;;20.73;11.52;;;15.80;99.90;;;;;;5043093;28;20108;-69
2022/12/22 16:07:47;;;;;;;17.27;11.52;;;15.90;99.90;;;;;;5038738;28;20472;-67
2022/12/22 16:10:26;;;;;;;22.67;12.52;;;15.90;99.90;;;;;;5041227;28;20056;-70
2022/12/22 16:12:59;;;;;;;19.33;13.48;;;15.90;99.90;;;;;;5034813;28;20079;-70
2022/12/22 16:15:28;;;;;;;25.58;13.45;;;15.90;99.90;;;;;;5032610;28;20038;-69
2022/12/22 16:17:56;;;;;;;22.70;14.38;;;15.90;99.90;;;;;;5047664;28;20025;-69
2022/12/22 16:20:24;;;;;;;24.63;14.20;;;15.80;99.90;;;;;;5045765;28;20039;-70
2022/12/22 16:22:52;;;;;;;23.88;13.88;;;15.80;99.90;;;;;;5046333;28;20037;-68
2022/12/22 16:25:25;;;;;;;21.30;14.05;;;15.90;99.90;;;;;;5034797;28;20402;-69
2022/12/22 16:27:54;;;;;;;18.95;13.90;;;15.80;99.90;;;;;;5033478;28;20064;-70
2022/12/22 16:30:24;;;;;;;16.98;12.40;;;15.80;99.90;;;;;;5040064;28;20025;-70
2022/12/22 16:32:51;;;;;;;23.10;12.45;;;15.80;99.90;;;;;;5047885;28;20033;-69
2022/12/22 16:35:22;;;;;;;24.02;14.20;;;15.80;99.90;;;;;;5044238;28;20072;-69
2022/12/22 16:37:50;;;;;;;21.25;15.05;;;15.80;99.90;;;;;;5035924;28;20036;-70
2022/12/22 16:40:18;;;;;;;24.88;14.23;;;15.90;99.90;;;;;;5040945;28;20021;-69
2022/12/22 16:43:25;;;;;;;19.88;13.77;;;15.90;99.90;;;;;;5050153;28;20033;-69
2022/12/22 16:45:53;;;;;;;21.40;13.57;;;15.90;99.90;;;;;;5023669;28;20037;-69
2022/12/22 16:48:34;;;;;;;20.08;12.15;;;15.90;99.90;;;;;;5030857;28;20029;-69
2022/12/22 16:51:02;;;;;;;21.98;12.57;;;15.90;99.90;;;;;;5040327;28;20021;-69
2022/12/22 16:53:29;;;;;;;18.10;11.77;;;15.90;99.90;;;;;;5048533;28;20017;-69